aviador You're here:

KILM Decoded Metar

WILMINGTON in NC, USA
Report Time2017-07-23 05:53:00
UTC Time2017-07-23 06:49:45
Flight Rules vfr VFR
Wind220° at 08 kt
W.Decomp.*RWY 24: 7.8 kt HW 1.8 kt LCW
RWY 17: 4.4 kt HW 6.7 kt RCW
W.Rank220° ranks 2
Current wind is below 220° avg. (8.0)
Visibility9999 m
Phenomena:N/A
Clouds:N/A
Expected CloudBase > 800 ft AGL from Temp-Dew spread
CeilingNone
Temp26°C (ISA +11)
Dew Point24°C (89% RH)
QNH1013 hPa
Density Alt1,699 ft
Elevation30 ft
Report Wrong Elevation
Raw Report
METAR KILM 230553Z AUTO 22008KT 10SM CLR 26/24 A2992 RMK AO2 SLP131
T02610244 10283 20261 58007=

Extra information for KILM:More info

Metar Taf Metar & Taf Last 4 Metars F.Rules Stats Wind Profile Meteogram Temp Stats Airport Information Weather charts Add Link Nearby VenuesMetar ALERT Operation Metar Decoded Social comments

AIRNAV info for KILM